Current | Forecast
Updated: 9:00 PM JST on June 25, 2017
Observed at Takamatsu Airport, Japan
Temperature 72°F
Humidity 100%
Dew Point 72°F
Wind SW at 4 mph
Pressure 29.65 in (Rising)
Conditions Mostly Cloudy
Visibility 6.2 miles
UV 0 out of 16
Clouds (FEW) : 500 ft
Scattered Clouds (SCT) : 2000 ft
Mostly Cloudy (BKN) : 3500 ft
Yesterday's Maximum 79°F
Yesterday's Minimum 68°F approx.
Yesterday's Cooling Degree Days 8 approx.
Sunrise4:56 AM JST
Sunset7:19 PM JST
Moon Rise6:00 AM JST
Moon Set8:19 PM JST
Moon PhaseMoon Phase
Waxing Crescent
Raw METARMETAR RJOT 251200Z 23003KT 9999 FEW005 SCT020 BKN035 22/22 Q1004


Monday
. High: 71° F.
Tuesday
. High: 77° F.
Wednesday
. High: 73° F.
Thursday
. High: 75° F.
Friday
. High: 73° F.
Saturday
. High: 73° F.
Sunday
. High: 75° F.
Monday
. High: 77° F.

Units: English | Metric

Find the Weather for any City, State or Zipcode, or Country:

U.S. State List | Severe Weather | Tropical Storms | Ski Conditions
United States | Canada | Central America | South America | Asia | Europe | Australia | Africa | Islands

Weather Underground

© Copyright 2017
The Weather Company, LLC